sensor_id;sensor_type;location;lat;lon;timestamp;P1;durP1;ratioP1;P2;durP2;ratioP2
10582;SDS011;33679;51.218;6.786;2022-10-31T00:00:16;15.40;;;8.70;;
10582;SDS011;33679;51.218;6.786;2022-10-31T00:02:44;12.70;;;7.40;;
10582;SDS011;33679;51.218;6.786;2022-10-31T00:05:11;17.13;;;9.57;;
10582;SDS011;33679;51.218;6.786;2022-10-31T00:07:40;13.00;;;7.20;;
10582;SDS011;33679;51.218;6.786;2022-10-31T00:10:08;13.53;;;6.13;;
10582;SDS011;33679;51.218;6.786;2022-10-31T00:12:38;14.53;;;6.30;;
10582;SDS011;33679;51.218;6.786;2022-10-31T00:15:06;14.37;;;7.00;;
10582;SDS011;33679;51.218;6.786;2022-10-31T00:17:44;9.30;;;5.83;;
10582;SDS011;33679;51.218;6.786;2022-10-31T00:20:11;9.87;;;6.40;;
10582;SDS011;33679;51.218;6.786;2022-10-31T00:22:41;11.50;;;6.40;;
10582;SDS011;33679;51.218;6.786;2022-10-31T00:25:09;16.13;;;6.20;;
10582;SDS011;33679;51.218;6.786;2022-10-31T00:27:36;21.43;;;7.03;;
10582;SDS011;33679;51.218;6.786;2022-10-31T00:30:07;12.40;;;5.93;;
10582;SDS011;33679;51.218;6.786;2022-10-31T00:32:35;9.40;;;5.77;;
10582;SDS011;33679;51.218;6.786;2022-10-31T00:35:03;11.03;;;5.73;;
10582;SDS011;33679;51.218;6.786;2022-10-31T00:37:31;11.20;;;5.40;;
10582;SDS011;33679;51.218;6.786;2022-10-31T00:40:02;9.23;;;5.53;;
10582;SDS011;33679;51.218;6.786;2022-10-31T00:42:30;14.20;;;5.47;;
10582;SDS011;33679;51.218;6.786;2022-10-31T00:44:58;9.67;;;5.07;;
10582;SDS011;33679;51.218;6.786;2022-10-31T00:47:25;10.83;;;5.13;;
10582;SDS011;33679;51.218;6.786;2022-10-31T00:49:52;11.27;;;5.77;;
10582;SDS011;33679;51.218;6.786;2022-10-31T00:52:20;12.07;;;5.27;;
10582;SDS011;33679;51.218;6.786;2022-10-31T00:54:47;8.03;;;5.07;;
10582;SDS011;33679;51.218;6.786;2022-10-31T00:57:16;10.70;;;6.07;;
10582;SDS011;33679;51.218;6.786;2022-10-31T00:59:46;8.20;;;5.33;;
10582;SDS011;33679;51.218;6.786;2022-10-31T01:02:15;9.37;;;4.80;;
10582;SDS011;33679;51.218;6.786;2022-10-31T01:04:42;8.80;;;5.23;;
10582;SDS011;33679;51.218;6.786;2022-10-31T01:07:10;7.90;;;4.90;;
10582;SDS011;33679;51.218;6.786;2022-10-31T01:09:43;10.13;;;5.37;;
10582;SDS011;33679;51.218;6.786;2022-10-31T01:12:11;8.77;;;4.93;;
10582;SDS011;33679;51.218;6.786;2022-10-31T01:14:43;13.60;;;5.73;;
10582;SDS011;33679;51.218;6.786;2022-10-31T01:17:11;9.23;;;5.30;;
10582;SDS011;33679;51.218;6.786;2022-10-31T01:19:38;11.13;;;5.27;;
10582;SDS011;33679;51.218;6.786;2022-10-31T01:22:08;12.30;;;4.97;;
10582;SDS011;33679;51.218;6.786;2022-10-31T01:24:36;12.80;;;6.47;;
10582;SDS011;33679;51.218;6.786;2022-10-31T01:27:03;8.73;;;4.93;;
10582;SDS011;33679;51.218;6.786;2022-10-31T01:29:35;6.83;;;4.83;;
10582;SDS011;33679;51.218;6.786;2022-10-31T01:32:08;12.40;;;5.50;;
10582;SDS011;33679;51.218;6.786;2022-10-31T01:34:36;9.80;;;5.20;;
10582;SDS011;33679;51.218;6.786;2022-10-31T01:37:03;8.50;;;5.37;;
10582;SDS011;33679;51.218;6.786;2022-10-31T01:39:31;16.30;;;5.40;;
10582;SDS011;33679;51.218;6.786;2022-10-31T01:41:58;7.77;;;5.43;;
10582;SDS011;33679;51.218;6.786;2022-10-31T01:44:48;13.37;;;4.83;;
10582;SDS011;33679;51.218;6.786;2022-10-31T01:47:21;6.60;;;5.20;;
10582;SDS011;33679;51.218;6.786;2022-10-31T01:49:58;10.80;;;5.67;;
10582;SDS011;33679;51.218;6.786;2022-10-31T01:52:30;8.80;;;5.27;;
10582;SDS011;33679;51.218;6.786;2022-10-31T01:55:08;10.20;;;5.50;;
10582;SDS011;33679;51.218;6.786;2022-10-31T01:57:40;11.93;;;5.53;;
10582;SDS011;33679;51.218;6.786;2022-10-31T02:00:11;13.13;;;5.90;;
10582;SDS011;33679;51.218;6.786;2022-10-31T02:02:42;9.33;;;4.90;;
10582;SDS011;33679;51.218;6.786;2022-10-31T02:05:12;11.13;;;5.70;;
10582;SDS011;33679;51.218;6.786;2022-10-31T02:07:45;11.40;;;6.00;;
10582;SDS011;33679;51.218;6.786;2022-10-31T02:10:19;9.40;;;5.00;;
10582;SDS011;33679;51.218;6.786;2022-10-31T02:12:48;11.47;;;5.03;;
10582;SDS011;33679;51.218;6.786;2022-10-31T02:15:17;12.43;;;6.50;;
10582;SDS011;33679;51.218;6.786;2022-10-31T02:17:46;10.10;;;5.03;;
10582;SDS011;33679;51.218;6.786;2022-10-31T02:20:20;8.73;;;5.03;;
10582;SDS011;33679;51.218;6.786;2022-10-31T02:22:57;11.70;;;5.03;;
10582;SDS011;33679;51.218;6.786;2022-10-31T02:25:50;9.83;;;5.13;;
10582;SDS011;33679;51.218;6.786;2022-10-31T02:28:34;11.90;;;5.37;;
10582;SDS011;33679;51.218;6.786;2022-10-31T02:31:22;7.33;;;4.87;;
10582;SDS011;33679;51.218;6.786;2022-10-31T02:34:00;12.03;;;5.30;;
10582;SDS011;33679;51.218;6.786;2022-10-31T02:36:38;11.50;;;5.60;;
10582;SDS011;33679;51.218;6.786;2022-10-31T02:39:16;9.23;;;4.63;;
10582;SDS011;33679;51.218;6.786;2022-10-31T02:41:52;9.03;;;4.77;;
10582;SDS011;33679;51.218;6.786;2022-10-31T02:44:30;10.00;;;5.13;;
10582;SDS011;33679;51.218;6.786;2022-10-31T02:47:08;11.07;;;5.13;;
10582;SDS011;33679;51.218;6.786;2022-10-31T02:49:38;12.87;;;5.77;;
10582;SDS011;33679;51.218;6.786;2022-10-31T02:52:16;7.50;;;5.33;;
10582;SDS011;33679;51.218;6.786;2022-10-31T02:54:45;9.37;;;5.07;;
10582;SDS011;33679;51.218;6.786;2022-10-31T02:57:14;11.50;;;5.80;;
10582;SDS011;33679;51.218;6.786;2022-10-31T02:59:46;8.87;;;5.33;;
10582;SDS011;33679;51.218;6.786;2022-10-31T03:02:20;8.17;;;5.33;;
10582;SDS011;33679;51.218;6.786;2022-10-31T03:08:06;8.27;;;4.47;;
10582;SDS011;33679;51.218;6.786;2022-10-31T03:10:41;9.60;;;5.10;;
10582;SDS011;33679;51.218;6.786;2022-10-31T03:13:14;10.77;;;5.50;;
10582;SDS011;33679;51.218;6.786;2022-10-31T03:15:51;13.10;;;5.70;;
10582;SDS011;33679;51.218;6.786;2022-10-31T03:18:23;8.27;;;5.50;;
10582;SDS011;33679;51.218;6.786;2022-10-31T03:20:56;11.30;;;5.23;;
10582;SDS011;33679;51.218;6.786;2022-10-31T03:23:30;8.67;;;4.77;;
10582;SDS011;33679;51.218;6.786;2022-10-31T03:26:00;10.30;;;5.33;;
10582;SDS011;33679;51.218;6.786;2022-10-31T03:28:39;6.67;;;4.43;;
10582;SDS011;33679;51.218;6.786;2022-10-31T03:31:13;10.10;;;5.47;;
10582;SDS011;33679;51.218;6.786;2022-10-31T03:33:46;9.83;;;5.10;;
10582;SDS011;33679;51.218;6.786;2022-10-31T03:36:16;8.00;;;4.57;;
10582;SDS011;33679;51.218;6.786;2022-10-31T03:38:45;14.60;;;6.13;;
10582;SDS011;33679;51.218;6.786;2022-10-31T03:41:18;14.13;;;5.50;;
10582;SDS011;33679;51.218;6.786;2022-10-31T03:43:51;9.10;;;5.30;;
10582;SDS011;33679;51.218;6.786;2022-10-31T03:46:27;12.00;;;5.93;;
10582;SDS011;33679;51.218;6.786;2022-10-31T03:48:58;11.43;;;5.97;;
10582;SDS011;33679;51.218;6.786;2022-10-31T03:51:28;13.53;;;5.63;;
10582;SDS011;33679;51.218;6.786;2022-10-31T03:54:05;16.87;;;6.17;;
10582;SDS011;33679;51.218;6.786;2022-10-31T03:56:40;12.50;;;5.60;;
10582;SDS011;33679;51.218;6.786;2022-10-31T03:59:13;8.07;;;5.30;;
10582;SDS011;33679;51.218;6.786;2022-10-31T04:01:44;13.53;;;5.83;;
10582;SDS011;33679;51.218;6.786;2022-10-31T04:04:18;7.73;;;5.10;;
10582;SDS011;33679;51.218;6.786;2022-10-31T04:06:49;11.40;;;6.30;;
10582;SDS011;33679;51.218;6.786;2022-10-31T04:09:18;10.80;;;5.23;;
10582;SDS011;33679;51.218;6.786;2022-10-31T04:11:48;9.17;;;4.87;;
10582;SDS011;33679;51.218;6.786;2022-10-31T04:14:46;9.60;;;5.37;;
10582;SDS011;33679;51.218;6.786;2022-10-31T04:17:18;14.20;;;6.03;;
10582;SDS011;33679;51.218;6.786;2022-10-31T04:19:50;14.00;;;4.83;;
10582;SDS011;33679;51.218;6.786;2022-10-31T04:22:18;12.07;;;4.90;;
10582;SDS011;33679;51.218;6.786;2022-10-31T04:24:45;10.27;;;5.73;;
10582;SDS011;33679;51.218;6.786;2022-10-31T04:27:15;13.63;;;5.10;;
10582;SDS011;33679;51.218;6.786;2022-10-31T04:29:43;10.13;;;5.87;;
10582;SDS011;33679;51.218;6.786;2022-10-31T04:32:11;8.23;;;5.07;;
10582;SDS011;33679;51.218;6.786;2022-10-31T04:34:38;15.33;;;5.60;;
10582;SDS011;33679;51.218;6.786;2022-10-31T04:37:09;9.00;;;5.00;;
10582;SDS011;33679;51.218;6.786;2022-10-31T04:39:37;9.07;;;4.47;;
10582;SDS011;33679;51.218;6.786;2022-10-31T04:42:23;11.13;;;5.37;;
10582;SDS011;33679;51.218;6.786;2022-10-31T04:44:51;8.40;;;4.67;;
10582;SDS011;33679;51.218;6.786;2022-10-31T04:47:18;5.27;;;4.50;;
10582;SDS011;33679;51.218;6.786;2022-10-31T04:49:46;12.80;;;5.30;;
10582;SDS011;33679;51.218;6.786;2022-10-31T04:52:16;7.60;;;4.73;;
10582;SDS011;33679;51.218;6.786;2022-10-31T04:54:43;8.57;;;5.00;;
10582;SDS011;33679;51.218;6.786;2022-10-31T04:57:29;7.97;;;5.13;;
10582;SDS011;33679;51.218;6.786;2022-10-31T05:00:00;9.80;;;4.60;;
10582;SDS011;33679;51.218;6.786;2022-10-31T05:02:29;9.93;;;5.30;;
10582;SDS011;33679;51.218;6.786;2022-10-31T05:04:57;8.43;;;5.20;;
10582;SDS011;33679;51.218;6.786;2022-10-31T05:07:29;10.30;;;5.10;;
10582;SDS011;33679;51.218;6.786;2022-10-31T05:09:57;10.87;;;5.57;;
10582;SDS011;33679;51.218;6.786;2022-10-31T05:12:24;7.87;;;5.10;;
10582;SDS011;33679;51.218;6.786;2022-10-31T05:15:07;10.47;;;5.83;;
10582;SDS011;33679;51.218;6.786;2022-10-31T05:17:37;11.30;;;5.57;;
10582;SDS011;33679;51.218;6.786;2022-10-31T05:20:24;9.20;;;5.30;;
10582;SDS011;33679;51.218;6.786;2022-10-31T05:23:13;8.43;;;4.90;;
10582;SDS011;33679;51.218;6.786;2022-10-31T05:25:41;8.57;;;4.73;;
10582;SDS011;33679;51.218;6.786;2022-10-31T05:28:11;14.27;;;5.60;;
10582;SDS011;33679;51.218;6.786;2022-10-31T05:30:38;8.00;;;5.27;;
10582;SDS011;33679;51.218;6.786;2022-10-31T05:33:10;9.20;;;5.00;;
10582;SDS011;33679;51.218;6.786;2022-10-31T05:35:57;9.40;;;4.90;;
10582;SDS011;33679;51.218;6.786;2022-10-31T05:38:44;10.20;;;5.13;;
10582;SDS011;33679;51.218;6.786;2022-10-31T05:41:22;10.03;;;5.70;;
10582;SDS011;33679;51.218;6.786;2022-10-31T05:43:52;11.23;;;5.30;;
10582;SDS011;33679;51.218;6.786;2022-10-31T05:46:25;8.50;;;5.50;;
10582;SDS011;33679;51.218;6.786;2022-10-31T05:49:11;8.77;;;5.13;;
10582;SDS011;33679;51.218;6.786;2022-10-31T05:51:57;9.33;;;5.40;;
10582;SDS011;33679;51.218;6.786;2022-10-31T05:54:34;11.20;;;5.90;;
10582;SDS011;33679;51.218;6.786;2022-10-31T05:57:01;10.30;;;5.50;;
10582;SDS011;33679;51.218;6.786;2022-10-31T05:59:29;10.03;;;5.50;;
10582;SDS011;33679;51.218;6.786;2022-10-31T06:01:59;10.30;;;5.60;;
10582;SDS011;33679;51.218;6.786;2022-10-31T06:04:50;8.00;;;5.20;;
10582;SDS011;33679;51.218;6.786;2022-10-31T06:07:18;10.03;;;5.77;;
10582;SDS011;33679;51.218;6.786;2022-10-31T06:09:47;10.87;;;5.30;;
10582;SDS011;33679;51.218;6.786;2022-10-31T06:12:14;10.50;;;6.17;;
10582;SDS011;33679;51.218;6.786;2022-10-31T06:15:17;10.13;;;5.50;;
10582;SDS011;33679;51.218;6.786;2022-10-31T06:17:45;8.60;;;5.10;;
10582;SDS011;33679;51.218;6.786;2022-10-31T06:20:24;12.93;;;5.67;;
10582;SDS011;33679;51.218;6.786;2022-10-31T06:22:57;8.77;;;5.70;;
10582;SDS011;33679;51.218;6.786;2022-10-31T06:25:26;13.80;;;5.87;;
10582;SDS011;33679;51.218;6.786;2022-10-31T06:27:54;10.50;;;5.80;;
10582;SDS011;33679;51.218;6.786;2022-10-31T06:30:26;13.13;;;6.37;;
10582;SDS011;33679;51.218;6.786;2022-10-31T06:32:54;15.17;;;6.40;;
10582;SDS011;33679;51.218;6.786;2022-10-31T06:35:30;10.33;;;5.67;;
10582;SDS011;33679;51.218;6.786;2022-10-31T06:37:58;15.10;;;6.63;;
10582;SDS011;33679;51.218;6.786;2022-10-31T06:40:33;15.37;;;7.20;;
10582;SDS011;33679;51.218;6.786;2022-10-31T06:43:15;13.33;;;6.50;;
10582;SDS011;33679;51.218;6.786;2022-10-31T06:45:44;13.23;;;6.27;;
10582;SDS011;33679;51.218;6.786;2022-10-31T06:48:28;11.40;;;6.70;;
10582;SDS011;33679;51.218;6.786;2022-10-31T06:51:19;18.83;;;6.80;;
10582;SDS011;33679;51.218;6.786;2022-10-31T06:53:50;13.80;;;6.90;;
10582;SDS011;33679;51.218;6.786;2022-10-31T06:56:19;12.87;;;6.33;;
10582;SDS011;33679;51.218;6.786;2022-10-31T06:58:51;15.17;;;6.43;;
10582;SDS011;33679;51.218;6.786;2022-10-31T07:01:31;14.03;;;6.87;;
10582;SDS011;33679;51.218;6.786;2022-10-31T07:04:00;13.63;;;6.37;;
10582;SDS011;33679;51.218;6.786;2022-10-31T07:06:31;17.40;;;6.27;;
10582;SDS011;33679;51.218;6.786;2022-10-31T07:08:58;16.40;;;7.30;;
10582;SDS011;33679;51.218;6.786;2022-10-31T07:11:27;12.03;;;6.63;;
10582;SDS011;33679;51.218;6.786;2022-10-31T07:13:58;10.37;;;6.37;;
10582;SDS011;33679;51.218;6.786;2022-10-31T07:16:25;8.20;;;5.80;;
10582;SDS011;33679;51.218;6.786;2022-10-31T07:18:53;11.03;;;6.47;;
10582;SDS011;33679;51.218;6.786;2022-10-31T07:21:20;12.17;;;6.53;;
10582;SDS011;33679;51.218;6.786;2022-10-31T07:23:49;12.07;;;7.23;;
10582;SDS011;33679;51.218;6.786;2022-10-31T07:26:41;13.67;;;7.07;;
10582;SDS011;33679;51.218;6.786;2022-10-31T07:29:09;17.53;;;7.03;;
10582;SDS011;33679;51.218;6.786;2022-10-31T07:31:37;13.57;;;7.47;;
10582;SDS011;33679;51.218;6.786;2022-10-31T07:34:12;22.23;;;10.57;;
10582;SDS011;33679;51.218;6.786;2022-10-31T07:36:58;39.20;;;15.67;;
10582;SDS011;33679;51.218;6.786;2022-10-31T07:39:27;16.93;;;8.10;;
10582;SDS011;33679;51.218;6.786;2022-10-31T07:41:58;9.83;;;6.20;;
10582;SDS011;33679;51.218;6.786;2022-10-31T07:44:28;19.17;;;7.90;;
10582;SDS011;33679;51.218;6.786;2022-10-31T07:47:04;13.00;;;6.47;;
10582;SDS011;33679;51.218;6.786;2022-10-31T07:49:50;22.40;;;6.43;;
10582;SDS011;33679;51.218;6.786;2022-10-31T07:52:36;13.73;;;6.93;;
10582;SDS011;33679;51.218;6.786;2022-10-31T07:55:22;14.90;;;7.30;;
10582;SDS011;33679;51.218;6.786;2022-10-31T07:57:56;14.43;;;6.50;;
10582;SDS011;33679;51.218;6.786;2022-10-31T08:00:24;16.47;;;7.10;;
10582;SDS011;33679;51.218;6.786;2022-10-31T08:02:59;15.63;;;7.87;;
10582;SDS011;33679;51.218;6.786;2022-10-31T08:05:45;11.83;;;6.83;;
10582;SDS011;33679;51.218;6.786;2022-10-31T08:08:33;10.77;;;6.97;;
10582;SDS011;33679;51.218;6.786;2022-10-31T08:11:00;12.40;;;7.13;;
10582;SDS011;33679;51.218;6.786;2022-10-31T08:13:31;12.50;;;6.53;;
10582;SDS011;33679;51.218;6.786;2022-10-31T08:16:02;46.10;;;28.30;;
10582;SDS011;33679;51.218;6.786;2022-10-31T08:18:33;22.03;;;12.63;;
10582;SDS011;33679;51.218;6.786;2022-10-31T08:21:03;15.00;;;7.93;;
10582;SDS011;33679;51.218;6.786;2022-10-31T08:23:31;11.83;;;6.73;;
10582;SDS011;33679;51.218;6.786;2022-10-31T08:25:59;14.20;;;7.60;;
10582;SDS011;33679;51.218;6.786;2022-10-31T08:28:30;13.83;;;7.47;;
10582;SDS011;33679;51.218;6.786;2022-10-31T08:30:58;16.73;;;7.37;;
10582;SDS011;33679;51.218;6.786;2022-10-31T08:33:40;14.53;;;7.50;;
10582;SDS011;33679;51.218;6.786;2022-10-31T08:36:26;14.90;;;7.13;;
10582;SDS011;33679;51.218;6.786;2022-10-31T08:39:14;17.23;;;6.90;;
10582;SDS011;33679;51.218;6.786;2022-10-31T08:41:43;14.60;;;6.40;;
10582;SDS011;33679;51.218;6.786;2022-10-31T08:44:13;13.10;;;6.97;;
10582;SDS011;33679;51.218;6.786;2022-10-31T08:46:42;12.87;;;6.90;;
10582;SDS011;33679;51.218;6.786;2022-10-31T08:49:09;10.33;;;6.43;;
10582;SDS011;33679;51.218;6.786;2022-10-31T08:51:47;12.23;;;7.43;;
10582;SDS011;33679;51.218;6.786;2022-10-31T08:54:14;13.77;;;7.53;;
10582;SDS011;33679;51.218;6.786;2022-10-31T08:56:53;12.73;;;7.10;;
10582;SDS011;33679;51.218;6.786;2022-10-31T08:59:33;12.00;;;7.00;;
10582;SDS011;33679;51.218;6.786;2022-10-31T09:02:19;12.60;;;7.07;;
10582;SDS011;33679;51.218;6.786;2022-10-31T09:04:49;15.87;;;7.80;;
10582;SDS011;33679;51.218;6.786;2022-10-31T09:07:16;20.67;;;8.20;;
10582;SDS011;33679;51.218;6.786;2022-10-31T09:09:43;28.43;;;14.47;;
10582;SDS011;33679;51.218;6.786;2022-10-31T09:12:11;15.40;;;8.80;;
10582;SDS011;33679;51.218;6.786;2022-10-31T09:14:59;12.70;;;6.77;;
10582;SDS011;33679;51.218;6.786;2022-10-31T09:17:46;12.17;;;6.47;;
10582;SDS011;33679;51.218;6.786;2022-10-31T09:20:35;15.83;;;6.30;;
10582;SDS011;33679;51.218;6.786;2022-10-31T09:23:05;13.77;;;7.27;;
10582;SDS011;33679;51.218;6.786;2022-10-31T09:25:36;11.23;;;6.90;;
10582;SDS011;33679;51.218;6.786;2022-10-31T09:28:30;11.80;;;6.80;;
10582;SDS011;33679;51.218;6.786;2022-10-31T09:31:05;11.47;;;6.27;;
10582;SDS011;33679;51.218;6.786;2022-10-31T09:33:52;13.07;;;6.57;;
10582;SDS011;33679;51.218;6.786;2022-10-31T09:36:42;12.50;;;8.00;;
10582;SDS011;33679;51.218;6.786;2022-10-31T09:39:18;13.33;;;7.80;;
10582;SDS011;33679;51.218;6.786;2022-10-31T09:42:00;21.40;;;7.73;;
10582;SDS011;33679;51.218;6.786;2022-10-31T09:44:39;9.93;;;6.23;;
10582;SDS011;33679;51.218;6.786;2022-10-31T09:47:29;16.53;;;8.67;;
10582;SDS011;33679;51.218;6.786;2022-10-31T09:50:32;12.10;;;7.20;;
10582;SDS011;33679;51.218;6.786;2022-10-31T09:53:26;15.73;;;6.93;;
10582;SDS011;33679;51.218;6.786;2022-10-31T09:55:58;15.97;;;8.00;;
10582;SDS011;33679;51.218;6.786;2022-10-31T09:58:27;15.00;;;7.37;;
10582;SDS011;33679;51.218;6.786;2022-10-31T10:00:57;14.27;;;7.70;;
10582;SDS011;33679;51.218;6.786;2022-10-31T10:03:30;15.70;;;6.83;;
10582;SDS011;33679;51.218;6.786;2022-10-31T10:06:19;18.73;;;6.33;;
10582;SDS011;33679;51.218;6.786;2022-10-31T10:09:14;10.70;;;6.80;;
10582;SDS011;33679;51.218;6.786;2022-10-31T10:12:09;11.93;;;7.20;;
10582;SDS011;33679;51.218;6.786;2022-10-31T10:14:53;13.93;;;7.43;;
10582;SDS011;33679;51.218;6.786;2022-10-31T10:17:36;18.00;;;6.70;;
10582;SDS011;33679;51.218;6.786;2022-10-31T10:20:23;14.30;;;6.73;;
10582;SDS011;33679;51.218;6.786;2022-10-31T10:23:02;12.17;;;6.80;;
10582;SDS011;33679;51.218;6.786;2022-10-31T10:25:46;13.93;;;7.30;;
10582;SDS011;33679;51.218;6.786;2022-10-31T10:28:21;12.07;;;7.23;;
10582;SDS011;33679;51.218;6.786;2022-10-31T10:30:53;18.70;;;7.90;;
10582;SDS011;33679;51.218;6.786;2022-10-31T10:33:27;12.10;;;6.97;;
10582;SDS011;33679;51.218;6.786;2022-10-31T10:36:03;9.83;;;6.07;;
10582;SDS011;33679;51.218;6.786;2022-10-31T10:38:36;19.40;;;8.03;;
10582;SDS011;33679;51.218;6.786;2022-10-31T10:41:09;18.23;;;5.90;;
10582;SDS011;33679;51.218;6.786;2022-10-31T10:43:49;13.03;;;6.13;;
10582;SDS011;33679;51.218;6.786;2022-10-31T10:46:23;12.67;;;6.30;;
10582;SDS011;33679;51.218;6.786;2022-10-31T10:49:16;11.97;;;5.90;;
10582;SDS011;33679;51.218;6.786;2022-10-31T10:51:50;11.20;;;5.10;;
10582;SDS011;33679;51.218;6.786;2022-10-31T10:54:32;10.20;;;5.57;;
10582;SDS011;33679;51.218;6.786;2022-10-31T10:57:22;13.57;;;6.60;;
10582;SDS011;33679;51.218;6.786;2022-10-31T11:00:15;14.57;;;6.77;;
10582;SDS011;33679;51.218;6.786;2022-10-31T11:02:53;15.10;;;6.73;;
10582;SDS011;33679;51.218;6.786;2022-10-31T11:05:26;10.77;;;5.80;;
10582;SDS011;33679;51.218;6.786;2022-10-31T11:08:05;10.00;;;6.23;;
10582;SDS011;33679;51.218;6.786;2022-10-31T11:10:34;11.43;;;6.40;;
10582;SDS011;33679;51.218;6.786;2022-10-31T11:13:17;18.43;;;9.80;;
10582;SDS011;33679;51.218;6.786;2022-10-31T11:15:51;16.27;;;7.73;;
10582;SDS011;33679;51.218;6.786;2022-10-31T11:18:42;9.00;;;5.87;;
10582;SDS011;33679;51.218;6.786;2022-10-31T11:21:19;13.10;;;5.47;;
10582;SDS011;33679;51.218;6.786;2022-10-31T11:24:03;9.77;;;5.87;;
10582;SDS011;33679;51.218;6.786;2022-10-31T11:26:40;10.83;;;5.53;;
10582;SDS011;33679;51.218;6.786;2022-10-31T11:29:16;8.50;;;5.57;;
10582;SDS011;33679;51.218;6.786;2022-10-31T11:31:56;11.70;;;5.60;;
10582;SDS011;33679;51.218;6.786;2022-10-31T11:34:29;10.40;;;5.27;;
10582;SDS011;33679;51.218;6.786;2022-10-31T11:37:01;8.33;;;4.73;;
10582;SDS011;33679;51.218;6.786;2022-10-31T11:39:46;9.27;;;5.90;;
10582;SDS011;33679;51.218;6.786;2022-10-31T11:42:23;14.47;;;6.10;;
10582;SDS011;33679;51.218;6.786;2022-10-31T11:44:58;12.50;;;4.93;;
10582;SDS011;33679;51.218;6.786;2022-10-31T11:47:33;9.17;;;5.07;;
10582;SDS011;33679;51.218;6.786;2022-10-31T11:50:08;9.90;;;6.10;;
10582;SDS011;33679;51.218;6.786;2022-10-31T11:52:39;11.10;;;5.97;;
10582;SDS011;33679;51.218;6.786;2022-10-31T11:55:16;8.53;;;4.87;;
10582;SDS011;33679;51.218;6.786;2022-10-31T11:57:56;9.57;;;5.27;;
10582;SDS011;33679;51.218;6.786;2022-10-31T12:00:27;11.30;;;5.70;;
10582;SDS011;33679;51.218;6.786;2022-10-31T12:03:13;14.77;;;6.07;;
10582;SDS011;33679;51.218;6.786;2022-10-31T12:06:06;11.43;;;5.03;;
10582;SDS011;33679;51.218;6.786;2022-10-31T12:08:42;8.23;;;4.43;;
10582;SDS011;33679;51.218;6.786;2022-10-31T12:11:19;10.87;;;4.63;;
10582;SDS011;33679;51.218;6.786;2022-10-31T12:14:10;9.07;;;4.70;;
10582;SDS011;33679;51.218;6.786;2022-10-31T12:16:47;9.00;;;5.10;;
10582;SDS011;33679;51.218;6.786;2022-10-31T12:19:27;8.70;;;4.03;;
10582;SDS011;33679;51.218;6.786;2022-10-31T12:22:17;10.10;;;4.67;;
10582;SDS011;33679;51.218;6.786;2022-10-31T12:28:02;6.63;;;3.90;;
10582;SDS011;33679;51.218;6.786;2022-10-31T12:30:46;8.03;;;4.27;;
10582;SDS011;33679;51.218;6.786;2022-10-31T12:33:29;4.57;;;3.37;;
10582;SDS011;33679;51.218;6.786;2022-10-31T12:36:15;7.00;;;3.30;;
10582;SDS011;33679;51.218;6.786;2022-10-31T12:39:12;6.53;;;3.47;;
10582;SDS011;33679;51.218;6.786;2022-10-31T12:41:53;7.70;;;4.23;;
10582;SDS011;33679;51.218;6.786;2022-10-31T12:44:50;9.33;;;3.43;;
10582;SDS011;33679;51.218;6.786;2022-10-31T12:47:55;10.60;;;3.83;;
10582;SDS011;33679;51.218;6.786;2022-10-31T12:50:38;4.63;;;3.07;;
10582;SDS011;33679;51.218;6.786;2022-10-31T12:53:20;7.60;;;3.73;;
10582;SDS011;33679;51.218;6.786;2022-10-31T12:56:09;7.30;;;4.13;;
10582;SDS011;33679;51.218;6.786;2022-10-31T12:58:47;8.20;;;2.87;;
10582;SDS011;33679;51.218;6.786;2022-10-31T13:01:21;8.70;;;3.53;;
10582;SDS011;33679;51.218;6.786;2022-10-31T13:03:57;10.00;;;3.43;;
10582;SDS011;33679;51.218;6.786;2022-10-31T13:06:32;5.13;;;3.07;;
10582;SDS011;33679;51.218;6.786;2022-10-31T13:09:02;7.27;;;3.90;;
10582;SDS011;33679;51.218;6.786;2022-10-31T13:11:37;9.60;;;3.87;;
10582;SDS011;33679;51.218;6.786;2022-10-31T13:14:11;11.07;;;4.23;;
10582;SDS011;33679;51.218;6.786;2022-10-31T13:16:49;7.93;;;3.03;;
10582;SDS011;33679;51.218;6.786;2022-10-31T13:19:19;10.57;;;4.47;;
10582;SDS011;33679;51.218;6.786;2022-10-31T13:21:53;13.47;;;3.80;;
10582;SDS011;33679;51.218;6.786;2022-10-31T13:24:36;9.60;;;4.33;;
10582;SDS011;33679;51.218;6.786;2022-10-31T13:27:11;6.70;;;3.20;;
10582;SDS011;33679;51.218;6.786;2022-10-31T13:29:53;9.63;;;3.70;;
10582;SDS011;33679;51.218;6.786;2022-10-31T13:32:30;4.20;;;2.80;;
10582;SDS011;33679;51.218;6.786;2022-10-31T13:35:07;14.30;;;7.50;;
10582;SDS011;33679;51.218;6.786;2022-10-31T13:37:49;13.17;;;4.07;;
10582;SDS011;33679;51.218;6.786;2022-10-31T13:40:26;10.20;;;3.70;;
10582;SDS011;33679;51.218;6.786;2022-10-31T13:43:06;6.40;;;3.37;;
10582;SDS011;33679;51.218;6.786;2022-10-31T13:45:49;5.20;;;3.50;;
10582;SDS011;33679;51.218;6.786;2022-10-31T13:48:29;8.47;;;3.20;;
10582;SDS011;33679;51.218;6.786;2022-10-31T13:51:07;9.00;;;2.90;;
10582;SDS011;33679;51.218;6.786;2022-10-31T13:53:38;8.70;;;3.50;;
10582;SDS011;33679;51.218;6.786;2022-10-31T13:56:26;7.20;;;3.17;;
10582;SDS011;33679;51.218;6.786;2022-10-31T13:59:00;7.77;;;3.83;;
10582;SDS011;33679;51.218;6.786;2022-10-31T14:01:50;8.80;;;3.53;;
10582;SDS011;33679;51.218;6.786;2022-10-31T14:04:22;7.07;;;3.63;;
10582;SDS011;33679;51.218;6.786;2022-10-31T14:06:54;6.37;;;3.70;;
10582;SDS011;33679;51.218;6.786;2022-10-31T14:09:36;8.83;;;3.43;;
10582;SDS011;33679;51.218;6.786;2022-10-31T14:12:06;9.30;;;3.50;;
10582;SDS011;33679;51.218;6.786;2022-10-31T14:14:41;7.37;;;3.20;;
10582;SDS011;33679;51.218;6.786;2022-10-31T14:17:17;7.20;;;3.27;;
10582;SDS011;33679;51.218;6.786;2022-10-31T14:20:01;4.83;;;3.20;;
10582;SDS011;33679;51.218;6.786;2022-10-31T14:22:48;6.00;;;3.27;;
10582;SDS011;33679;51.218;6.786;2022-10-31T14:25:29;8.97;;;3.57;;
10582;SDS011;33679;51.218;6.786;2022-10-31T14:28:01;4.63;;;3.10;;
10582;SDS011;33679;51.218;6.786;2022-10-31T14:30:52;10.03;;;3.20;;
10582;SDS011;33679;51.218;6.786;2022-10-31T14:33:22;7.70;;;3.30;;
10582;SDS011;33679;51.218;6.786;2022-10-31T14:35:56;9.97;;;3.67;;
10582;SDS011;33679;51.218;6.786;2022-10-31T14:38:31;7.90;;;3.43;;
10582;SDS011;33679;51.218;6.786;2022-10-31T14:44:48;9.50;;;4.17;;
10582;SDS011;33679;51.218;6.786;2022-10-31T14:47:38;7.83;;;3.50;;
10582;SDS011;33679;51.218;6.786;2022-10-31T14:50:26;12.83;;;3.80;;
10582;SDS011;33679;51.218;6.786;2022-10-31T14:53:03;8.53;;;3.27;;
10582;SDS011;33679;51.218;6.786;2022-10-31T14:55:32;4.90;;;3.10;;
10582;SDS011;33679;51.218;6.786;2022-10-31T14:58:08;9.70;;;3.90;;
10582;SDS011;33679;51.218;6.786;2022-10-31T15:00:38;12.40;;;4.03;;
10582;SDS011;33679;51.218;6.786;2022-10-31T15:03:12;7.43;;;3.63;;
10582;SDS011;33679;51.218;6.786;2022-10-31T15:05:46;6.70;;;3.20;;
10582;SDS011;33679;51.218;6.786;2022-10-31T15:11:12;6.27;;;3.20;;
10582;SDS011;33679;51.218;6.786;2022-10-31T15:13:41;4.20;;;2.90;;
10582;SDS011;33679;51.218;6.786;2022-10-31T15:16:23;5.83;;;3.23;;
10582;SDS011;33679;51.218;6.786;2022-10-31T15:18:55;8.90;;;3.53;;
10582;SDS011;33679;51.218;6.786;2022-10-31T15:21:27;8.57;;;3.67;;
10582;SDS011;33679;51.218;6.786;2022-10-31T15:23:58;7.50;;;3.30;;
10582;SDS011;33679;51.218;6.786;2022-10-31T15:26:31;9.40;;;3.20;;
10582;SDS011;33679;51.218;6.786;2022-10-31T15:29:03;6.87;;;3.00;;
10582;SDS011;33679;51.218;6.786;2022-10-31T15:31:36;7.47;;;3.40;;
10582;SDS011;33679;51.218;6.786;2022-10-31T15:34:27;6.63;;;3.37;;
10582;SDS011;33679;51.218;6.786;2022-10-31T15:37:16;8.30;;;3.30;;
10582;SDS011;33679;51.218;6.786;2022-10-31T15:39:52;8.00;;;2.87;;
10582;SDS011;33679;51.218;6.786;2022-10-31T15:42:28;9.60;;;4.80;;